Time;durP1;ratioP1;P1;durP2;ratioP2;P2;SDS_P1;SDS_P2;PMS_P1;PMS_P2;Temp;Humidity;BMP_temperature;BMP_pressure;BME280_temperature;BME280_humidity;BME280_pressure;Samples;Min_cycle;Max_cycle;Signal;HPM_P1;HPM_P2
2022/05/01 00:01:19;;;;;;;7.97;2.25;;;;;;;;;;4954126;29;20060;-65
2022/05/01 00:03:50;;;;;;;4.65;2.10;;;;;;;;;;4954162;29;20062;-65
2022/05/01 00:06:21;;;;;;;1.83;0.90;;;;;;;;;;4953834;29;20051;-66
2022/05/01 00:08:52;;;;;;;3.70;2.08;;;;;;;;;;4953910;29;20418;-65
2022/05/01 00:11:23;;;;;;;5.13;0.80;;;;;;;;;;4953834;29;20047;-65
2022/05/01 00:13:53;;;;;;;3.60;0.98;;;;;;;;;;4949926;29;20052;-65
2022/05/01 00:16:25;;;;;;;1.05;0.95;;;;;;;;;;4934681;29;20439;-65
2022/05/01 00:18:55;;;;;;;2.35;0.65;;;;;;;;;;4919263;29;20052;-65
2022/05/01 00:21:26;;;;;;;1.50;0.60;;;;;;;;;;4903041;29;20056;-65
2022/05/01 00:23:56;;;;;;;1.58;0.73;;;;;;;;;;4934789;29;20055;-66
2022/05/01 00:26:28;;;;;;;2.13;0.90;;;;;;;;;;4902776;29;20056;-65
2022/05/01 00:29:06;;;;;;;1.98;0.50;;;;;;;;;;4934237;29;20063;-65
2022/05/01 00:31:36;;;;;;;2.65;0.63;;;;;;;;;;4934194;29;20054;-65
2022/05/01 00:36:56;;;;;;;2.08;0.65;;;;;;;;;;4920302;29;20067;-65
2022/05/01 00:39:26;;;;;;;1.92;0.47;;;;;;;;;;4915241;29;20526;-65
2022/05/01 00:41:57;;;;;;;2.75;0.60;;;;;;;;;;4915297;29;20048;-65
2022/05/01 00:44:28;;;;;;;3.92;0.50;;;;;;;;;;4933534;29;20055;-65
2022/05/01 00:46:59;;;;;;;1.90;0.60;;;;;;;;;;4933658;29;20062;-65
2022/05/01 00:49:30;;;;;;;3.20;0.70;;;;;;;;;;4886666;29;20071;-65
2022/05/01 00:52:08;;;;;;;3.72;0.65;;;;;;;;;;4947240;29;20827;-65
2022/05/01 00:54:42;;;;;;;3.63;0.50;;;;;;;;;;4920186;29;20070;-65
2022/05/01 00:57:15;;;;;;;2.92;0.57;;;;;;;;;;4921413;29;20446;-65
2022/05/01 00:59:46;;;;;;;4.20;1.02;;;;;;;;;;4921165;29;20060;-65
2022/05/01 01:02:18;;;;;;;1.13;0.55;;;;;;;;;;4952927;29;20066;-65
2022/05/01 01:04:48;;;;;;;1.50;0.80;;;;;;;;;;4968228;28;20062;-65
2022/05/01 01:07:19;;;;;;;2.97;0.85;;;;;;;;;;4924296;28;20730;-65
2022/05/01 01:09:50;;;;;;;2.90;0.50;;;;;;;;;;4972108;28;20063;-65
2022/05/01 01:15:14;;;;;;;2.03;1.02;;;;;;;;;;4952159;29;20055;-65
2022/05/01 01:17:46;;;;;;;2.60;0.80;;;;;;;;;;4952440;29;20062;-65
2022/05/01 01:20:22;;;;;;;2.00;1.02;;;;;;;;;;4920673;29;20051;-65
2022/05/01 01:22:58;;;;;;;2.05;0.88;;;;;;;;;;4874375;29;20051;-65
2022/05/01 01:25:31;;;;;;;1.48;0.80;;;;;;;;;;4949456;29;20624;-65
2022/05/01 01:28:05;;;;;;;2.05;0.80;;;;;;;;;;4952179;29;20162;-65
2022/05/01 01:33:25;;;;;;;4.13;0.80;;;;;;;;;;4916889;29;20439;-65
2022/05/01 01:36:01;;;;;;;1.55;0.70;;;;;;;;;;4933085;29;20066;-65
2022/05/01 01:38:32;;;;;;;4.20;0.70;;;;;;;;;;4933047;29;20142;-65
2022/05/01 01:41:09;;;;;;;2.85;0.73;;;;;;;;;;4932718;29;20504;-65
2022/05/01 01:43:44;;;;;;;2.95;0.60;;;;;;;;;;4933122;29;20051;-65
2022/05/01 01:46:14;;;;;;;2.83;0.70;;;;;;;;;;4932974;29;20063;-65
2022/05/01 01:48:46;;;;;;;2.80;0.70;;;;;;;;;;4932883;29;20059;-65
2022/05/01 01:51:18;;;;;;;2.58;0.90;;;;;;;;;;4933254;29;20059;-65
2022/05/01 01:53:49;;;;;;;2.03;1.20;;;;;;;;;;4949692;29;20503;-65
2022/05/01 01:56:19;;;;;;;1.73;0.70;;;;;;;;;;4920797;29;20052;-65
2022/05/01 01:58:50;;;;;;;1.98;0.77;;;;;;;;;;4951965;29;20526;-65
2022/05/01 02:01:21;;;;;;;1.98;0.95;;;;;;;;;;4984183;28;20549;-65
2022/05/01 02:03:52;;;;;;;2.22;0.90;;;;;;;;;;4974171;28;20063;-65
2022/05/01 02:06:23;;;;;;;4.50;1.00;;;;;;;;;;4942023;28;20057;-65
2022/05/01 02:08:54;;;;;;;2.17;0.68;;;;;;;;;;4992092;28;20062;-66
2022/05/01 02:11:26;;;;;;;1.20;0.60;;;;;;;;;;4974586;28;20054;-65
2022/05/01 02:13:56;;;;;;;3.42;1.20;;;;;;;;;;4992723;28;20049;-65
2022/05/01 02:16:27;;;;;;;3.75;1.00;;;;;;;;;;4958564;28;20058;-65
2022/05/01 02:18:57;;;;;;;2.28;0.93;;;;;;;;;;4990082;28;20050;-65
2022/05/01 02:21:34;;;;;;;4.03;0.90;;;;;;;;;;4957914;28;20058;-66
2022/05/01 02:24:12;;;;;;;4.50;1.05;;;;;;;;;;4990078;28;20061;-65
2022/05/01 02:26:43;;;;;;;6.47;1.63;;;;;;;;;;4990477;28;20050;-65
2022/05/01 02:29:13;;;;;;;6.43;1.63;;;;;;;;;;4990163;28;20050;-65
2022/05/01 02:31:45;;;;;;;2.35;0.98;;;;;;;;;;4919498;29;20062;-65
2022/05/01 02:34:16;;;;;;;3.33;0.95;;;;;;;;;;4966732;28;20059;-65
2022/05/01 02:36:48;;;;;;;3.03;1.00;;;;;;;;;;4951296;29;20058;-65
2022/05/01 02:39:20;;;;;;;2.58;1.00;;;;;;;;;;4951427;29;20530;-65
2022/05/01 02:41:51;;;;;;;2.22;0.98;;;;;;;;;;4951487;29;20043;-65
2022/05/01 02:44:22;;;;;;;2.13;1.15;;;;;;;;;;4935941;29;20124;-65
2022/05/01 02:46:52;;;;;;;2.53;0.98;;;;;;;;;;4951517;29;20148;-65
2022/05/01 02:49:23;;;;;;;7.20;1.52;;;;;;;;;;4951432;29;20918;-65
2022/05/01 02:51:54;;;;;;;2.20;0.82;;;;;;;;;;4951515;29;20161;-65
2022/05/01 02:54:25;;;;;;;2.92;1.13;;;;;;;;;;4951398;29;20063;-65
2022/05/01 02:56:55;;;;;;;1.90;0.93;;;;;;;;;;4963695;28;20509;-65
2022/05/01 02:59:26;;;;;;;3.88;1.10;;;;;;;;;;4970634;28;20450;-65
2022/05/01 03:01:57;;;;;;;3.70;1.30;;;;;;;;;;4970418;28;20096;-65
2022/05/01 03:04:29;;;;;;;9.00;1.92;;;;;;;;;;4938550;28;20050;-65
2022/05/01 03:07:00;;;;;;;3.67;1.33;;;;;;;;;;4971015;28;20054;-65
2022/05/01 03:09:30;;;;;;;2.05;0.90;;;;;;;;;;4982826;28;20502;-65
2022/05/01 03:12:03;;;;;;;3.22;1.08;;;;;;;;;;5006446;28;20047;-65
2022/05/01 03:14:33;;;;;;;2.85;1.23;;;;;;;;;;4992578;28;20050;-64
2022/05/01 03:17:04;;;;;;;4.95;1.50;;;;;;;;;;5007762;28;20053;-64
2022/05/01 03:22:24;;;;;;;6.70;1.20;;;;;;;;;;4954770;29;20063;-65
2022/05/01 03:24:55;;;;;;;2.50;1.00;;;;;;;;;;4954701;29;20063;-65
2022/05/01 03:27:25;;;;;;;2.88;1.10;;;;;;;;;;4954550;29;20055;-65
2022/05/01 03:30:17;;;;;;;2.40;1.00;;;;;;;;;;4954551;29;20078;-65
2022/05/01 03:32:48;;;;;;;3.28;1.30;;;;;;;;;;4935046;29;20052;-65
2022/05/01 03:35:19;;;;;;;3.03;1.10;;;;;;;;;;4935299;29;20067;-65
2022/05/01 03:37:50;;;;;;;6.35;1.35;;;;;;;;;;4935457;29;20067;-64
2022/05/01 03:40:21;;;;;;;2.42;1.05;;;;;;;;;;4934829;29;20059;-65
2022/05/01 03:42:52;;;;;;;3.42;1.15;;;;;;;;;;4935468;29;20496;-65
2022/05/01 03:45:22;;;;;;;4.18;1.10;;;;;;;;;;4934938;29;20058;-64
2022/05/01 03:47:53;;;;;;;3.25;1.05;;;;;;;;;;4904616;29;20060;-65
2022/05/01 03:50:24;;;;;;;2.90;1.13;;;;;;;;;;4935015;29;20055;-65
2022/05/01 03:52:55;;;;;;;5.57;1.10;;;;;;;;;;4935102;29;20060;-65
2022/05/01 03:55:25;;;;;;;5.40;1.30;;;;;;;;;;4935033;29;20055;-65
2022/05/01 03:57:57;;;;;;;3.63;1.40;;;;;;;;;;4934816;29;20107;-65
2022/05/01 04:00:28;;;;;;;2.55;1.27;;;;;;;;;;4903861;29;20047;-65
2022/05/01 04:02:59;;;;;;;2.42;1.30;;;;;;;;;;4903581;29;20056;-65
2022/05/01 04:05:32;;;;;;;2.58;1.20;;;;;;;;;;4903186;29;20435;-65
2022/05/01 04:08:03;;;;;;;5.22;1.10;;;;;;;;;;4862488;29;20045;-65
2022/05/01 04:10:34;;;;;;;6.68;1.42;;;;;;;;;;4905572;29;20551;-64
2022/05/01 04:13:06;;;;;;;7.28;1.80;;;;;;;;;;4915893;29;20077;-64
2022/05/01 04:15:37;;;;;;;2.55;1.15;;;;;;;;;;4915395;29;20055;-64
2022/05/01 04:18:08;;;;;;;2.60;1.15;;;;;;;;;;4915707;29;20071;-65
2022/05/01 04:20:39;;;;;;;7.00;1.40;;;;;;;;;;4859313;29;20082;-64
2022/05/01 04:23:10;;;;;;;4.97;1.48;;;;;;;;;;4869688;29;20044;-65
2022/05/01 04:25:41;;;;;;;3.63;1.40;;;;;;;;;;4877852;29;20061;-64
2022/05/01 04:28:12;;;;;;;3.55;2.05;;;;;;;;;;4877630;29;20437;-65
2022/05/01 04:30:46;;;;;;;3.13;1.25;;;;;;;;;;4877734;29;20076;-65
2022/05/01 04:33:17;;;;;;;3.38;1.50;;;;;;;;;;4877592;29;20494;-64
2022/05/01 04:35:50;;;;;;;2.67;1.38;;;;;;;;;;4877746;29;20052;-65
2022/05/01 04:38:23;;;;;;;6.20;1.90;;;;;;;;;;4877873;29;20064;-65
2022/05/01 04:40:59;;;;;;;5.15;1.60;;;;;;;;;;4861896;29;20057;-64
2022/05/01 04:43:31;;;;;;;2.75;1.30;;;;;;;;;;4877799;29;20064;-65
2022/05/01 04:46:01;;;;;;;2.88;1.00;;;;;;;;;;4877405;29;20080;-65
2022/05/01 04:48:32;;;;;;;6.93;1.33;;;;;;;;;;4877590;29;20162;-66
2022/05/01 04:51:03;;;;;;;3.20;1.42;;;;;;;;;;4877543;29;20061;-65
2022/05/01 04:53:34;;;;;;;5.32;1.40;;;;;;;;;;4877661;29;20169;-65
2022/05/01 04:58:53;;;;;;;6.15;1.30;;;;;;;;;;4919504;29;20056;-65
2022/05/01 05:01:24;;;;;;;7.55;1.42;;;;;;;;;;4963326;28;20066;-65
2022/05/01 05:03:55;;;;;;;3.00;1.58;;;;;;;;;;4972406;28;20055;-66
2022/05/01 05:06:26;;;;;;;9.85;1.52;;;;;;;;;;4978874;28;20682;-65
2022/05/01 05:11:45;;;;;;;2.38;1.33;;;;;;;;;;4972261;28;20058;-65
2022/05/01 05:14:16;;;;;;;3.38;1.30;;;;;;;;;;4971982;28;20069;-65
2022/05/01 05:16:46;;;;;;;3.72;1.60;;;;;;;;;;4972038;28;20061;-65
2022/05/01 05:19:16;;;;;;;4.60;1.52;;;;;;;;;;4971802;28;20046;-65
2022/05/01 05:21:47;;;;;;;4.30;1.50;;;;;;;;;;4971936;28;20059;-65
2022/05/01 05:24:25;;;;;;;3.90;1.27;;;;;;;;;;4971884;28;20054;-65
2022/05/01 05:26:56;;;;;;;4.93;1.88;;;;;;;;;;4971842;28;20442;-65
2022/05/01 05:29:26;;;;;;;2.58;1.40;;;;;;;;;;4971913;28;20047;-65
2022/05/01 05:31:57;;;;;;;5.30;1.48;;;;;;;;;;4971858;28;20070;-65
2022/05/01 05:34:28;;;;;;;3.00;1.50;;;;;;;;;;4955992;28;20747;-65
2022/05/01 05:36:59;;;;;;;3.75;1.50;;;;;;;;;;4936109;29;20048;-65
2022/05/01 05:39:29;;;;;;;4.55;2.15;;;;;;;;;;4952160;28;20055;-65
2022/05/01 05:42:00;;;;;;;3.35;1.30;;;;;;;;;;4913347;29;20048;-65
2022/05/01 05:44:31;;;;;;;4.03;1.52;;;;;;;;;;4913977;29;20064;-65
2022/05/01 05:47:02;;;;;;;3.47;1.67;;;;;;;;;;4889212;29;20515;-66
2022/05/01 05:49:32;;;;;;;4.80;1.90;;;;;;;;;;4864115;29;20418;-65
2022/05/01 05:52:04;;;;;;;3.15;1.17;;;;;;;;;;4842206;29;20517;-65
2022/05/01 05:54:34;;;;;;;2.85;1.38;;;;;;;;;;4838912;29;20068;-65
2022/05/01 05:57:05;;;;;;;3.28;1.38;;;;;;;;;;4824271;29;20054;-65
2022/05/01 05:59:36;;;;;;;3.22;1.63;;;;;;;;;;4839276;29;20053;-65
2022/05/01 06:02:08;;;;;;;3.88;1.83;;;;;;;;;;4839361;29;20061;-65
2022/05/01 06:04:41;;;;;;;3.50;1.35;;;;;;;;;;4839125;29;20121;-65
2022/05/01 06:07:11;;;;;;;4.03;1.60;;;;;;;;;;4842419;29;20053;-65
2022/05/01 06:09:47;;;;;;;5.47;1.60;;;;;;;;;;4857621;29;20053;-65
2022/05/01 06:12:18;;;;;;;5.68;1.40;;;;;;;;;;4857397;29;20061;-65
2022/05/01 06:14:48;;;;;;;3.65;1.38;;;;;;;;;;4868606;29;20053;-65
2022/05/01 06:17:19;;;;;;;4.15;1.65;;;;;;;;;;4853925;29;20065;-65
2022/05/01 06:19:50;;;;;;;3.30;1.65;;;;;;;;;;4860874;29;20061;-65
2022/05/01 06:22:20;;;;;;;6.55;1.60;;;;;;;;;;4894478;29;20064;-65
2022/05/01 06:24:51;;;;;;;9.70;1.80;;;;;;;;;;4862990;29;20067;-65
2022/05/01 06:27:21;;;;;;;3.95;1.55;;;;;;;;;;4894544;29;20555;-65
2022/05/01 06:29:52;;;;;;;3.30;1.45;;;;;;;;;;4920691;29;20060;-65
2022/05/01 06:32:23;;;;;;;4.78;1.75;;;;;;;;;;4902605;29;20060;-65
2022/05/01 06:34:53;;;;;;;3.67;1.60;;;;;;;;;;4894688;29;20056;-65
2022/05/01 06:37:24;;;;;;;6.85;2.63;;;;;;;;;;4894507;29;20420;-65
2022/05/01 06:39:55;;;;;;;4.50;1.48;;;;;;;;;;4894579;29;20063;-65
2022/05/01 06:42:25;;;;;;;7.65;1.63;;;;;;;;;;4894196;29;20057;-65
2022/05/01 06:44:56;;;;;;;7.53;1.85;;;;;;;;;;4853424;29;20080;-66
2022/05/01 06:47:27;;;;;;;3.95;1.92;;;;;;;;;;4875811;29;20076;-65
2022/05/01 06:49:57;;;;;;;6.75;2.10;;;;;;;;;;4875869;29;20067;-66
2022/05/01 06:52:28;;;;;;;8.43;1.80;;;;;;;;;;4857899;29;20076;-65
2022/05/01 06:55:00;;;;;;;9.05;1.80;;;;;;;;;;4870203;29;20049;-66
2022/05/01 06:57:31;;;;;;;10.63;2.10;;;;;;;;;;4879500;29;20129;-66
2022/05/01 07:00:01;;;;;;;3.15;1.60;;;;;;;;;;4879344;29;20076;-65
2022/05/01 07:02:32;;;;;;;5.90;1.63;;;;;;;;;;4879463;29;20053;-65
2022/05/01 07:05:03;;;;;;;6.63;2.17;;;;;;;;;;4900349;29;20056;-65
2022/05/01 07:07:34;;;;;;;6.05;1.60;;;;;;;;;;4870200;29;20135;-65
2022/05/01 07:10:06;;;;;;;8.18;1.73;;;;;;;;;;4916830;29;20056;-66
2022/05/01 07:12:38;;;;;;;8.10;1.95;;;;;;;;;;4885404;29;20067;-65
2022/05/01 07:15:09;;;;;;;4.93;1.60;;;;;;;;;;4916817;29;20051;-65
2022/05/01 07:17:40;;;;;;;5.93;2.08;;;;;;;;;;4916916;29;20618;-66
2022/05/01 07:20:11;;;;;;;9.32;1.70;;;;;;;;;;4937893;29;20055;-65
2022/05/01 07:22:47;;;;;;;4.35;1.35;;;;;;;;;;4939981;29;20087;-65
2022/05/01 07:25:17;;;;;;;3.40;1.70;;;;;;;;;;4955026;29;20051;-66
2022/05/01 07:27:48;;;;;;;4.80;1.83;;;;;;;;;;4954919;29;20050;-65
2022/05/01 07:30:18;;;;;;;6.38;2.13;;;;;;;;;;4978848;28;20062;-65
2022/05/01 07:32:49;;;;;;;4.43;2.22;;;;;;;;;;4999734;28;20046;-65
2022/05/01 07:35:20;;;;;;;7.72;1.75;;;;;;;;;;5015436;28;20050;-66
2022/05/01 07:37:50;;;;;;;5.47;2.30;;;;;;;;;;5012665;28;20068;-66
2022/05/01 07:40:24;;;;;;;4.07;2.33;;;;;;;;;;4973631;28;20418;-66
2022/05/01 07:42:55;;;;;;;4.32;1.70;;;;;;;;;;4954016;29;20058;-66
2022/05/01 07:45:26;;;;;;;6.00;1.98;;;;;;;;;;4954221;29;20514;-66
2022/05/01 07:47:59;;;;;;;4.78;1.70;;;;;;;;;;4918261;29;20137;-66
2022/05/01 07:50:29;;;;;;;3.58;1.77;;;;;;;;;;4935131;29;20059;-66
2022/05/01 07:53:00;;;;;;;5.45;1.73;;;;;;;;;;4888058;29;20564;-66
2022/05/01 07:55:31;;;;;;;4.90;1.92;;;;;;;;;;4953907;28;20578;-66
2022/05/01 07:58:02;;;;;;;4.40;1.73;;;;;;;;;;4923160;29;20067;-66
2022/05/01 08:00:32;;;;;;;3.17;1.55;;;;;;;;;;4953993;28;20438;-66
2022/05/01 08:05:52;;;;;;;8.27;2.00;;;;;;;;;;4953807;28;20066;-66
2022/05/01 08:08:22;;;;;;;3.75;1.90;;;;;;;;;;4954074;28;20059;-66
2022/05/01 08:10:53;;;;;;;4.43;1.65;;;;;;;;;;4953906;28;20060;-66
2022/05/01 08:13:23;;;;;;;2.50;1.55;;;;;;;;;;4899549;29;20048;-66
2022/05/01 08:15:54;;;;;;;3.20;1.60;;;;;;;;;;4899802;29;20428;-66
2022/05/01 08:21:14;;;;;;;6.80;2.03;;;;;;;;;;4934523;29;20051;-66
2022/05/01 08:23:44;;;;;;;6.93;1.70;;;;;;;;;;4938233;29;20059;-66
2022/05/01 08:26:17;;;;;;;5.25;1.90;;;;;;;;;;4939266;29;20080;-66
2022/05/01 08:28:51;;;;;;;4.90;1.77;;;;;;;;;;4933374;29;20082;-66
2022/05/01 08:31:22;;;;;;;4.68;1.70;;;;;;;;;;4949820;28;20067;-66
2022/05/01 08:33:54;;;;;;;5.13;1.67;;;;;;;;;;4964668;28;20062;-66
2022/05/01 08:36:26;;;;;;;3.88;1.70;;;;;;;;;;4972637;28;20051;-66
2022/05/01 08:38:57;;;;;;;4.93;1.60;;;;;;;;;;4902250;29;20061;-67
2022/05/01 08:41:30;;;;;;;2.72;1.75;;;;;;;;;;4934136;29;20401;-66
2022/05/01 08:44:02;;;;;;;3.40;1.60;;;;;;;;;;4896489;29;20061;-66
2022/05/01 08:47:10;;;;;;;3.40;1.60;;;;;;;;;;4880798;29;20057;-66
2022/05/01 08:49:43;;;;;;;7.75;1.60;;;;;;;;;;4858786;29;20081;-65
2022/05/01 08:52:18;;;;;;;4.65;1.52;;;;;;;;;;4896294;29;20599;-65
2022/05/01 08:54:50;;;;;;;4.18;1.92;;;;;;;;;;4880570;29;20059;-65
2022/05/01 08:57:23;;;;;;;;;;;;;;;;;;4865648;29;20070;-65
2022/05/01 08:59:54;;;;;;;5.75;1.45;;;;;;;;;;4864901;29;20383;-65
2022/05/01 09:02:26;;;;;;;7.30;1.52;;;;;;;;;;4864843;29;20548;-66
2022/05/01 09:04:59;;;;;;;4.88;1.55;;;;;;;;;;4895930;29;20990;-66
2022/05/01 09:07:30;;;;;;;2.53;1.33;;;;;;;;;;4849898;29;20060;-65
2022/05/01 09:10:00;;;;;;;8.38;1.65;;;;;;;;;;4895786;29;20504;-65
2022/05/01 09:12:49;;;;;;;5.25;1.30;;;;;;;;;;4845834;29;20097;-65
2022/05/01 09:15:36;;;;;;;2.08;1.20;;;;;;;;;;4876081;29;20053;-65
2022/05/01 09:18:09;;;;;;;2.92;1.30;;;;;;;;;;4861496;29;20057;-65
2022/05/01 09:21:05;;;;;;;2.33;1.25;;;;;;;;;;4881189;29;20105;-65
2022/05/01 09:23:39;;;;;;;2.97;1.25;;;;;;;;;;4914475;29;20412;-65
2022/05/01 09:26:12;;;;;;;4.70;1.10;;;;;;;;;;4939653;28;20522;-65
2022/05/01 09:28:54;;;;;;;2.50;1.10;;;;;;;;;;4974853;28;20066;-65
2022/05/01 09:31:43;;;;;;;4.13;1.00;;;;;;;;;;4990857;28;20050;-65
2022/05/01 09:34:29;;;;;;;3.20;1.15;;;;;;;;;;4975291;28;20058;-66
2022/05/01 09:37:03;;;;;;;2.30;1.02;;;;;;;;;;4935927;29;20043;-65
2022/05/01 09:39:33;;;;;;;2.42;1.30;;;;;;;;;;4952266;28;20059;-65
2022/05/01 09:42:17;;;;;;;1.88;1.20;;;;;;;;;;4919969;29;20059;-65
2022/05/01 09:45:07;;;;;;;4.65;1.40;;;;;;;;;;4952344;29;20070;-65
2022/05/01 09:47:41;;;;;;;2.80;1.25;;;;;;;;;;4894939;29;20052;-67
2022/05/01 09:50:15;;;;;;;2.75;1.70;;;;;;;;;;4873405;29;20095;-67
2022/05/01 09:52:58;;;;;;;4.18;1.17;;;;;;;;;;4914121;29;20423;-66
2022/05/01 09:55:29;;;;;;;2.10;1.02;;;;;;;;;;4913760;29;20167;-66
2022/05/01 09:58:14;;;;;;;6.43;1.55;;;;;;;;;;4898616;29;20083;-66
2022/05/01 10:00:47;;;;;;;2.00;0.95;;;;;;;;;;4913530;29;20067;-66
2022/05/01 10:03:22;;;;;;;3.65;1.13;;;;;;;;;;4883178;29;20056;-65
2022/05/01 10:05:54;;;;;;;1.88;0.90;;;;;;;;;;4867575;29;20065;-66
2022/05/01 10:08:26;;;;;;;2.75;1.45;;;;;;;;;;4883237;29;20063;-66
2022/05/01 10:10:59;;;;;;;2.00;1.05;;;;;;;;;;4897791;29;20610;-65
2022/05/01 10:13:29;;;;;;;1.92;1.05;;;;;;;;;;4883335;29;20064;-65
2022/05/01 10:16:08;;;;;;;2.08;1.30;;;;;;;;;;4913523;29;20052;-66
2022/05/01 10:18:47;;;;;;;1.92;1.23;;;;;;;;;;4897585;29;20545;-65
2022/05/01 10:21:39;;;;;;;2.33;1.00;;;;;;;;;;4940423;29;20055;-66
2022/05/01 10:24:09;;;;;;;4.85;1.33;;;;;;;;;;4954935;28;20055;-66
2022/05/01 10:26:51;;;;;;;2.70;1.70;;;;;;;;;;4977036;28;20418;-66
2022/05/01 10:29:41;;;;;;;2.55;1.17;;;;;;;;;;4970604;28;20124;-65
2022/05/01 10:32:34;;;;;;;2.75;1.50;;;;;;;;;;4970401;28;20070;-65
2022/05/01 10:35:59;;;;;;;2.60;1.30;;;;;;;;;;4931862;29;20055;-66
2022/05/01 10:38:48;;;;;;;5.97;1.45;;;;;;;;;;4901287;29;20055;-66
2022/05/01 10:41:19;;;;;;;2.20;1.20;;;;;;;;;;4932303;29;20052;-65
2022/05/01 10:43:58;;;;;;;7.68;1.80;;;;;;;;;;4900814;29;20069;-66
2022/05/01 10:46:33;;;;;;;6.10;1.67;;;;;;;;;;4932202;29;20059;-66
2022/05/01 10:49:05;;;;;;;5.28;2.30;;;;;;;;;;4932070;29;20051;-66
2022/05/01 10:51:43;;;;;;;5.53;2.17;;;;;;;;;;4932353;29;20063;-66
2022/05/01 10:54:14;;;;;;;6.28;2.45;;;;;;;;;;4932143;29;20392;-66
2022/05/01 10:56:51;;;;;;;8.77;2.58;;;;;;;;;;4930975;29;20531;-65
2022/05/01 10:59:47;;;;;;;8.95;2.33;;;;;;;;;;4931919;29;20059;-66
2022/05/01 11:02:35;;;;;;;5.97;2.60;;;;;;;;;;4931988;29;20059;-66
2022/05/01 11:05:08;;;;;;;9.95;2.50;;;;;;;;;;4932884;29;20056;-66
2022/05/01 11:07:40;;;;;;;14.43;2.20;;;;;;;;;;4952224;28;20057;-66
2022/05/01 11:10:11;;;;;;;12.20;1.90;;;;;;;;;;4990057;28;20070;-66
2022/05/01 11:12:44;;;;;;;13.10;2.30;;;;;;;;;;4990592;28;20422;-66
2022/05/01 11:15:27;;;;;;;5.30;1.77;;;;;;;;;;4991986;28;20046;-66
2022/05/01 11:17:58;;;;;;;5.18;2.17;;;;;;;;;;4989867;28;20054;-66
2022/05/01 11:20:30;;;;;;;5.80;2.47;;;;;;;;;;4992079;28;20046;-66
2022/05/01 11:23:31;;;;;;;7.45;2.47;;;;;;;;;;4991929;28;20050;-66
2022/05/01 11:26:13;;;;;;;4.90;2.60;;;;;;;;;;4991840;28;20050;-66
2022/05/01 11:28:48;;;;;;;6.15;2.30;;;;;;;;;;4991920;28;20502;-66
2022/05/01 11:31:37;;;;;;;3.92;2.28;;;;;;;;;;4989821;28;20054;-66
2022/05/01 11:34:22;;;;;;;4.07;2.33;;;;;;;;;;5007561;28;20592;-67
2022/05/01 11:37:05;;;;;;;4.70;2.13;;;;;;;;;;4934631;29;20581;-66
2022/05/01 11:40:09;;;;;;;5.78;2.38;;;;;;;;;;4953428;28;20063;-66
2022/05/01 11:42:41;;;;;;;3.58;1.98;;;;;;;;;;4954408;29;20503;-66
2022/05/01 11:45:13;;;;;;;4.47;2.33;;;;;;;;;;4922418;29;20510;-66
2022/05/01 11:47:49;;;;;;;4.63;2.60;;;;;;;;;;4938171;29;20055;-66
2022/05/01 11:50:21;;;;;;;4.40;2.40;;;;;;;;;;4939025;29;20051;-66
2022/05/01 11:52:54;;;;;;;5.78;2.60;;;;;;;;;;4923562;29;20440;-66
2022/05/01 12:04:31;;;;;;;8.55;4.88;;;;;;;;;;4954049;29;20047;-66
2022/05/01 12:07:15;;;;;;;16.35;6.35;;;;;;;;;;4938130;29;20537;-66
2022/05/01 12:09:47;;;;;;;10.50;4.68;;;;;;;;;;4953564;28;20050;-66
2022/05/01 12:12:20;;;;;;;13.38;5.78;;;;;;;;;;4938392;29;20082;-66
2022/05/01 12:14:51;;;;;;;10.63;5.40;;;;;;;;;;4966624;28;20058;-66
2022/05/01 12:17:21;;;;;;;14.27;6.68;;;;;;;;;;5012103;28;20057;-66
2022/05/01 12:19:54;;;;;;;19.13;10.73;;;;;;;;;;4979448;28;20456;-66
2022/05/01 12:22:37;;;;;;;14.00;7.15;;;;;;;;;;4963475;28;20057;-66
2022/05/01 12:25:10;;;;;;;11.63;6.53;;;;;;;;;;4997366;28;20054;-67
2022/05/01 12:27:42;;;;;;;12.30;5.70;;;;;;;;;;4995858;28;20054;-67
2022/05/01 12:30:14;;;;;;;10.13;5.32;;;;;;;;;;4979844;28;20072;-67
2022/05/01 12:32:54;;;;;;;;;;;;;;;;;;5012090;28;20061;-66
2022/05/01 12:35:24;;;;;;;9.85;5.28;;;;;;;;;;5011669;28;19921;-66
2022/05/01 12:37:59;;;;;;;10.70;4.90;;;;;;;;;;5011868;28;20053;-66
2022/05/01 12:46:24;;;;;;;13.02;6.70;;;;;;;;;;4972113;28;20058;-66
2022/05/01 12:48:58;;;;;;;12.07;4.82;;;;;;;;;;4953176;28;20427;-67
2022/05/01 12:51:42;;;;;;;7.95;3.88;;;;;;;;;;4953344;29;20079;-66
2022/05/01 12:54:19;;;;;;;11.07;5.10;;;;;;;;;;4953138;29;20063;-66
2022/05/01 12:56:50;;;;;;;11.48;5.20;;;;;;;;;;4952985;29;20059;-66
2022/05/01 12:59:33;;;;;;;10.98;5.18;;;;;;;;;;4922098;29;20059;-66
2022/05/01 13:02:04;;;;;;;13.70;5.80;;;;;;;;;;4938325;29;20062;-66
2022/05/01 13:04:34;;;;;;;15.90;6.82;;;;;;;;;;4953166;29;20400;-66
2022/05/01 13:07:05;;;;;;;14.25;7.93;;;;;;;;;;4952806;29;20407;-66
2022/05/01 13:09:51;;;;;;;13.10;5.65;;;;;;;;;;4905419;29;20095;-66
2022/05/01 13:12:34;;;;;;;10.80;4.65;;;;;;;;;;4891063;29;20078;-67
2022/05/01 13:15:05;;;;;;;12.30;4.75;;;;;;;;;;4867710;29;20048;-66
2022/05/01 13:17:36;;;;;;;15.15;5.78;;;;;;;;;;4883231;29;20563;-66
2022/05/01 13:20:08;;;;;;;13.70;6.88;;;;;;;;;;4917425;29;20538;-66
2022/05/01 13:22:38;;;;;;;14.05;6.55;;;;;;;;;;4933627;29;20166;-66
2022/05/01 13:25:13;;;;;;;14.20;5.18;;;;;;;;;;4921048;29;20059;-66
2022/05/01 13:27:44;;;;;;;11.85;5.90;;;;;;;;;;4925388;29;20052;-66
2022/05/01 13:30:15;;;;;;;8.65;4.82;;;;;;;;;;4914753;29;20471;-66
2022/05/01 13:32:45;;;;;;;7.15;2.63;;;;;;;;;;4923079;29;20091;-66
2022/05/01 13:35:16;;;;;;;8.43;3.95;;;;;;;;;;4920777;29;20594;-67
2022/05/01 13:37:46;;;;;;;10.63;6.47;;;;;;;;;;4952469;29;20050;-66
2022/05/01 13:45:55;;;;;;;9.88;3.55;;;;;;;;;;4967566;28;20065;-66
2022/05/01 13:48:25;;;;;;;15.15;5.30;;;;;;;;;;4991156;28;20142;-66
2022/05/01 13:50:57;;;;;;;9.32;3.42;;;;;;;;;;4942935;28;20062;-66
2022/05/01 13:53:28;;;;;;;13.20;6.38;;;;;;;;;;4975099;28;20074;-66
2022/05/01 13:55:58;;;;;;;8.13;3.42;;;;;;;;;;4974698;28;20061;-66
2022/05/01 13:58:29;;;;;;;8.57;3.80;;;;;;;;;;4958752;28;20050;-66
2022/05/01 14:01:01;;;;;;;8.18;3.80;;;;;;;;;;4958231;28;20046;-66
2022/05/01 14:03:32;;;;;;;17.70;8.88;;;;;;;;;;4990929;28;20438;-66
2022/05/01 14:06:03;;;;;;;17.33;10.00;;;;;;;;;;5007570;28;20058;-66
2022/05/01 14:08:34;;;;;;;7.93;3.97;;;;;;;;;;5012561;28;20050;-65
2022/05/01 14:11:06;;;;;;;21.38;11.02;;;;;;;;;;4990544;28;20564;-66
2022/05/01 14:13:37;;;;;;;15.38;8.20;;;;;;;;;;4975093;28;20058;-66
2022/05/01 14:16:08;;;;;;;9.70;5.07;;;;;;;;;;4942030;28;20081;-66
2022/05/01 14:18:41;;;;;;;8.85;4.57;;;;;;;;;;4951533;28;20495;-66
2022/05/01 14:21:16;;;;;;;7.32;3.45;;;;;;;;;;4951719;29;20058;-66
2022/05/01 14:23:47;;;;;;;10.32;4.80;;;;;;;;;;4951858;29;20059;-66
2022/05/01 14:26:20;;;;;;;10.55;4.22;;;;;;;;;;4935619;29;20058;-66
2022/05/01 14:28:50;;;;;;;10.35;4.03;;;;;;;;;;4951916;29;20059;-66
2022/05/01 14:31:37;;;;;;;9.35;4.00;;;;;;;;;;4951479;29;20420;-66
2022/05/01 14:34:33;;;;;;;10.80;4.35;;;;;;;;;;4951711;28;20062;-66
2022/05/01 14:37:06;;;;;;;9.45;4.20;;;;;;;;;;4951526;29;20063;-66
2022/05/01 14:39:43;;;;;;;11.55;5.57;;;;;;;;;;4936112;29;20047;-66
2022/05/01 14:42:17;;;;;;;14.52;6.07;;;;;;;;;;4904163;29;20490;-66
2022/05/01 14:44:56;;;;;;;10.15;4.45;;;;;;;;;;4936075;29;20062;-66
2022/05/01 14:47:31;;;;;;;11.00;5.07;;;;;;;;;;4951698;29;20059;-66
2022/05/01 14:50:03;;;;;;;7.93;3.85;;;;;;;;;;4970395;28;20047;-66
2022/05/01 14:52:34;;;;;;;8.10;3.95;;;;;;;;;;4970771;28;20542;-66
2022/05/01 14:55:07;;;;;;;10.40;3.65;;;;;;;;;;4951164;29;20058;-67
2022/05/01 14:57:44;;;;;;;3.88;1.90;;;;;;;;;;4951579;29;20059;-68
2022/05/01 15:08:37;;;;;;;1.80;1.02;;;;;;;;;;4951341;29;20573;-66
2022/05/01 15:11:08;;;;;;;;;;;;;;;;;;4951880;29;20074;-66
2022/05/01 15:13:38;;;;;;;2.00;1.02;;;;;;;;;;4936808;29;19922;-66
2022/05/01 15:16:27;;;;;;;3.10;0.88;;;;;;;;;;4954965;29;20074;-66
2022/05/01 15:19:26;;;;;;;3.95;1.10;;;;;;;;;;4955051;29;20052;-66
2022/05/01 15:22:23;;;;;;;2.72;1.48;;;;;;;;;;4954711;29;20411;-66
2022/05/01 15:25:10;;;;;;;1.67;0.70;;;;;;;;;;4955101;29;20059;-66
2022/05/01 15:27:50;;;;;;;3.08;1.17;;;;;;;;;;4954978;29;20168;-66
2022/05/01 15:30:30;;;;;;;1.95;1.10;;;;;;;;;;4954674;29;20527;-67
2022/05/01 15:36:00;;;;;;;1.67;0.90;;;;;;;;;;4993561;28;20042;-66
2022/05/01 15:38:39;;;;;;;3.10;1.65;;;;;;;;;;4993219;28;20057;-66
2022/05/01 15:41:15;;;;;;;;;;;;;;;;;;4993878;28;20054;-67
2022/05/01 15:43:46;;;;;;;1.92;0.68;;;;;;;;;;4993255;28;19929;-66
2022/05/01 15:46:28;;;;;;;2.67;0.70;;;;;;;;;;4993244;28;20058;-67
2022/05/01 15:54:43;;;;;;;2.15;0.85;;;;;;;;;;4960776;28;20078;-67
2022/05/01 15:57:15;;;;;;;2.10;0.80;;;;;;;;;;4976561;28;20523;-68
2022/05/01 15:59:47;;;;;;;2.63;0.70;;;;;;;;;;4972720;28;20157;-69
2022/05/01 16:02:20;;;;;;;3.97;0.70;;;;;;;;;;5012472;28;20517;-66
2022/05/01 16:04:52;;;;;;;0.85;0.60;;;;;;;;;;4996984;28;20053;-67
2022/05/01 16:07:46;;;;;;;2.28;0.70;;;;;;;;;;5012353;28;20054;-68
2022/05/01 16:10:21;;;;;;;1.35;1.02;;;;;;;;;;5012618;28;20072;-67
2022/05/01 16:13:18;;;;;;;1.48;0.73;;;;;;;;;;4996001;28;20049;-67
2022/05/01 16:16:40;;;;;;;1.60;0.85;;;;;;;;;;5013057;28;20524;-67
2022/05/01 16:19:22;;;;;;;1.77;0.60;;;;;;;;;;4953926;29;20055;-69
2022/05/01 16:22:27;;;;;;;1.67;1.00;;;;;;;;;;4954074;29;20063;-66
2022/05/01 16:25:07;;;;;;;2.65;0.80;;;;;;;;;;4903677;29;20056;-68